Portada
METAR-TAF:

METAR-TAF

Aeropuertos :

Aeropuerto Internacional de Harbin

Harbin, China

latitud: 45-45N, longitud: 126-46E, altitud: 143 m

Observación

El informe se hizo hace 39 minutos, a las 03:00 UTC
Viento 6 kt del oeste-suroeste, variando entre sur-suroeste y oeste
Temperatura 26°C
Humedad 84%
Presión 1000 hPa
Visibilidad 10 km o más
Cielo nuboso a una altura de 3000 ft

METAR: ZYHB 010300Z 24003MPS 200V270 9999 BKN030 26/23 Q1000 NOSIG

Hora: 11:39 (03:39 UTC)

Pronóstico

El informe se hizo hace 6 horas y 19 minutos, a las 21:20 UTC
Pronóstico válido del 01 a las 00 UTC al 01 a las 24 UTC
Viento 8 kt del sur-suroeste
Visibilidad: 6000 m
Nubes dispersas a una altura de 3000 ft
Temporalmente
del 01 a las 00 UTC al 01 a las 06 UTC
Escasas nubes a una altura de 2300 ft, Cumulonimbus.
Cielo nuboso a una altura de 3000 ft

TAF: ZYHB 312120Z 0100/0124 20004MPS 6000 SCT030 TX28/0106Z TN21/0121Z TEMPO 0100/0106 FEW023CB BKN030

Observaciones y pronósticos meteorológicos de más de 4000 aeropuertos (mensajes METAR y TAF).

Los puntos amarillos y rojos representan las estaciones disponibles.

Ponga el ratón en el punto deseado para ver el nombre de la estación.

Haga clic para ver las observaciones y los pronósticos meteorológicos.

Para cambiar el mapa : haga clic en los botones verdes con una cruz de color negro para hacer un zoom, en el botón verde con un guión para alejar o en las flechas verdes para mapas adyacentes.


METAR-TAF: